Time;durP1;ratioP1;P1;durP2;ratioP2;P2;SDS_P1;SDS_P2;PMS_P1;PMS_P2;Temp;Humidity;BMP_temperature;BMP_pressure;BME280_temperature;BME280_humidity;BME280_pressure;Samples;Min_cycle;Max_cycle;Signal;HPM_P1;HPM_P2
2021/11/07 00:03:51;;;;;;;18.38;11.68;;;;;;;;;;5044383;28;20040;-73
2021/11/07 00:06:33;;;;;;;22.60;11.85;;;;;;;;;;5067417;28;20028;-73
2021/11/07 00:11:57;;;;;;;21.05;11.52;;;;;;;;;;5048231;28;20513;-72
2021/11/07 00:14:24;;;;;;;23.35;14.13;;;;;;;;;;5057317;28;20670;-72
2021/11/07 00:16:51;;;;;;;22.05;13.88;;;;;;;;;;5056519;28;20029;-72
2021/11/07 00:19:42;;;;;;;21.08;13.52;;;;;;;;;;5050620;28;20041;-73
2021/11/07 00:22:11;;;;;;;24.58;14.35;;;;;;;;;;5065378;28;20040;-73
2021/11/07 00:24:54;;;;;;;23.42;13.00;;;;;;;;;;5056994;28;20087;-73
2021/11/07 00:29:53;;;;;;;23.85;13.25;;;;;;;;;;5057340;28;20037;-73
2021/11/07 00:40:11;;;;;;;20.27;12.15;;;;;;;;;;5063603;28;20040;-73
2021/11/07 00:46:25;;;;;;;20.17;12.80;;;;;;;;;;5066376;28;20043;-73
2021/11/07 00:50:58;;;;;;;32.90;19.80;;;;;;;;;;5063086;28;20477;-73
2021/11/07 01:01:21;;;;;;;29.55;16.95;;;;;;;;;;5059718;28;20046;-73
2021/11/07 01:03:47;;;;;;;20.33;12.57;;;;;;;;;;5064120;28;20028;-73
2021/11/07 01:06:13;;;;;;;15.15;10.02;;;;;;;;;;5063606;28;20036;-73
2021/11/07 01:08:40;;;;;;;14.27;9.00;;;;;;;;;;5073667;28;20028;-72
2021/11/07 01:11:06;;;;;;;13.93;8.18;;;;;;;;;;5067974;28;20032;-72
2021/11/07 01:13:32;;;;;;;15.65;9.05;;;;;;;;;;5068476;28;20032;-72
2021/11/07 01:15:58;;;;;;;13.10;8.32;;;;;;;;;;5066487;28;20036;-73
2021/11/07 01:18:25;;;;;;;14.23;9.18;;;;;;;;;;5072289;28;20024;-73
2021/11/07 01:20:52;;;;;;;18.90;9.98;;;;;;;;;;5060242;28;20052;-73
2021/11/07 01:23:39;;;;;;;13.02;8.05;;;;;;;;;;5064256;28;20040;-73
2021/11/07 01:26:20;;;;;;;15.63;10.02;;;;;;;;;;5064196;28;20024;-72
2021/11/07 01:28:54;;;;;;;14.40;9.52;;;;;;;;;;5066669;28;20060;-73
2021/11/07 01:31:20;;;;;;;13.68;8.40;;;;;;;;;;5065876;28;20028;-73
2021/11/07 01:33:46;;;;;;;14.20;8.15;;;;;;;;;;5068125;28;20037;-72
2021/11/07 01:36:27;;;;;;;17.23;9.43;;;;;;;;;;5051963;28;20056;-73
2021/11/07 01:42:01;;;;;;;11.10;7.32;;;;;;;;;;5056648;28;20083;-72
2021/11/07 01:44:52;;;;;;;17.30;9.70;;;;;;;;;;5065811;28;20078;-73
2021/11/07 01:47:19;;;;;;;15.03;9.10;;;;;;;;;;5070021;28;20035;-73
2021/11/07 01:49:46;;;;;;;16.77;9.13;;;;;;;;;;5056064;28;20033;-72
2021/11/07 01:52:12;;;;;;;12.13;7.82;;;;;;;;;;5066252;28;20466;-72
2021/11/07 01:54:55;;;;;;;15.30;8.70;;;;;;;;;;5055792;28;20120;-73
2021/11/07 01:57:28;;;;;;;12.48;7.25;;;;;;;;;;5066819;28;20472;-73
2021/11/07 01:59:56;;;;;;;16.02;9.48;;;;;;;;;;5071660;28;20121;-72
2021/11/07 02:02:24;;;;;;;13.20;8.40;;;;;;;;;;5051211;28;20032;-73
2021/11/07 02:04:50;;;;;;;14.30;8.23;;;;;;;;;;5043849;28;20431;-73
2021/11/07 02:07:16;;;;;;;15.88;8.93;;;;;;;;;;5030902;28;20025;-72
2021/11/07 02:09:42;;;;;;;14.23;8.18;;;;;;;;;;5048266;28;20040;-73
2021/11/07 02:12:09;;;;;;;12.63;8.18;;;;;;;;;;5051043;28;20043;-73
2021/11/07 02:14:36;;;;;;;15.07;8.90;;;;;;;;;;5058558;28;20043;-72
2021/11/07 02:17:02;;;;;;;17.08;11.52;;;;;;;;;;5063717;28;20044;-72
2021/11/07 02:19:28;;;;;;;15.30;10.23;;;;;;;;;;5061805;28;20047;-73
2021/11/07 02:21:54;;;;;;;13.15;7.97;;;;;;;;;;5066515;28;20020;-73
2021/11/07 02:24:21;;;;;;;13.43;7.97;;;;;;;;;;5048244;28;20122;-72
2021/11/07 02:26:54;;;;;;;17.83;8.38;;;;;;;;;;5054804;28;20106;-72
2021/11/07 02:29:21;;;;;;;11.70;7.53;;;;;;;;;;5063365;28;20024;-73
2021/11/07 02:31:47;;;;;;;12.50;7.97;;;;;;;;;;5047171;28;20481;-73
2021/11/07 02:34:13;;;;;;;14.35;8.50;;;;;;;;;;5064605;28;20491;-72
2021/11/07 02:36:39;;;;;;;17.70;8.48;;;;;;;;;;5053477;28;20533;-72
2021/11/07 02:39:05;;;;;;;15.68;8.10;;;;;;;;;;5061343;28;20567;-72
2021/11/07 02:41:31;;;;;;;12.40;6.35;;;;;;;;;;5054873;28;20037;-72
2021/11/07 02:43:57;;;;;;;10.50;5.68;;;;;;;;;;5050911;28;20406;-73
2021/11/07 02:46:23;;;;;;;8.02;4.80;;;;;;;;;;5049987;28;20028;-72
2021/11/07 02:48:52;;;;;;;13.68;6.38;;;;;;;;;;5052060;28;20029;-73
2021/11/07 02:51:23;;;;;;;14.35;7.57;;;;;;;;;;5055392;28;20474;-73
2021/11/07 02:53:49;;;;;;;17.27;7.85;;;;;;;;;;5053097;28;20079;-72
2021/11/07 02:56:15;;;;;;;11.55;6.80;;;;;;;;;;5059893;28;20477;-73
2021/11/07 02:58:41;;;;;;;11.43;6.95;;;;;;;;;;5054547;28;20063;-73
2021/11/07 03:01:07;;;;;;;13.38;7.60;;;;;;;;;;5064017;28;20043;-72
2021/11/07 03:03:34;;;;;;;13.75;8.27;;;;;;;;;;5066712;28;20033;-73
2021/11/07 03:06:01;;;;;;;9.98;6.18;;;;;;;;;;5049792;28;20033;-73
2021/11/07 03:08:28;;;;;;;13.50;6.82;;;;;;;;;;5050162;28;20573;-73
2021/11/07 03:10:54;;;;;;;12.73;7.55;;;;;;;;;;5065366;28;20040;-73
2021/11/07 03:13:20;;;;;;;12.40;7.28;;;;;;;;;;5048759;28;20214;-73
2021/11/07 03:15:46;;;;;;;14.88;8.02;;;;;;;;;;5071677;28;20489;-72
2021/11/07 03:18:13;;;;;;;12.50;7.68;;;;;;;;;;5057105;28;20142;-72
2021/11/07 03:20:40;;;;;;;14.48;8.27;;;;;;;;;;5050342;28;20041;-72
2021/11/07 03:23:06;;;;;;;13.48;8.02;;;;;;;;;;5045646;28;20077;-72
2021/11/07 03:25:32;;;;;;;12.85;8.15;;;;;;;;;;5065753;28;20131;-73
2021/11/07 03:27:59;;;;;;;12.45;6.95;;;;;;;;;;5058723;28;20508;-73
2021/11/07 03:33:33;;;;;;;14.07;7.70;;;;;;;;;;5029201;28;20045;-72
2021/11/07 03:36:03;;;;;;;13.38;7.40;;;;;;;;;;5061476;28;20420;-72
2021/11/07 03:38:29;;;;;;;10.32;6.82;;;;;;;;;;5058736;28;20119;-73
2021/11/07 03:40:55;;;;;;;11.85;6.97;;;;;;;;;;5057312;28;20059;-73
2021/11/07 03:43:25;;;;;;;12.98;6.25;;;;;;;;;;5064067;28;20044;-73
2021/11/07 03:45:51;;;;;;;11.25;6.30;;;;;;;;;;5052560;28;20136;-72
2021/11/07 03:48:17;;;;;;;10.38;5.65;;;;;;;;;;5058449;28;20036;-72
2021/11/07 03:50:45;;;;;;;9.05;5.65;;;;;;;;;;5060372;28;20068;-73
2021/11/07 03:53:11;;;;;;;10.88;5.35;;;;;;;;;;5049992;28;20067;-72
2021/11/07 03:55:38;;;;;;;9.05;4.90;;;;;;;;;;5057833;28;20478;-73
2021/11/07 03:58:04;;;;;;;10.05;5.45;;;;;;;;;;5049231;28;20128;-72
2021/11/07 04:00:30;;;;;;;9.80;5.13;;;;;;;;;;5054134;28;20075;-72
2021/11/07 04:02:57;;;;;;;9.52;4.57;;;;;;;;;;5054750;28;20045;-72
2021/11/07 04:05:24;;;;;;;11.10;5.60;;;;;;;;;;5054150;28;20072;-72
2021/11/07 04:07:50;;;;;;;14.23;6.65;;;;;;;;;;5059321;28;20373;-73
2021/11/07 04:10:16;;;;;;;11.77;6.70;;;;;;;;;;5049672;28;20029;-72
2021/11/07 04:12:43;;;;;;;9.73;6.22;;;;;;;;;;5067103;28;20028;-73
2021/11/07 04:15:10;;;;;;;10.48;6.35;;;;;;;;;;5067517;28;20102;-72
2021/11/07 04:17:36;;;;;;;12.32;7.40;;;;;;;;;;5057928;28;20504;-72
2021/11/07 04:20:03;;;;;;;12.68;7.68;;;;;;;;;;5068809;28;20469;-72
2021/11/07 04:22:29;;;;;;;13.50;7.82;;;;;;;;;;5045698;28;20544;-72
2021/11/07 04:24:55;;;;;;;12.82;6.68;;;;;;;;;;5062462;28;20047;-73
2021/11/07 04:27:23;;;;;;;10.75;6.18;;;;;;;;;;5059047;28;20028;-73
2021/11/07 04:29:49;;;;;;;11.48;5.20;;;;;;;;;;5054983;28;20534;-73
2021/11/07 04:32:15;;;;;;;7.28;3.58;;;;;;;;;;5050823;28;20112;-72
2021/11/07 04:34:41;;;;;;;8.82;4.68;;;;;;;;;;5064166;28;20021;-73
2021/11/07 04:37:08;;;;;;;9.95;5.60;;;;;;;;;;5049806;28;20029;-72
2021/11/07 04:39:34;;;;;;;11.35;6.32;;;;;;;;;;5064463;28;20051;-72
2021/11/07 04:42:00;;;;;;;12.90;7.13;;;;;;;;;;5039526;28;20043;-73
2021/11/07 04:44:27;;;;;;;13.65;7.55;;;;;;;;;;5051900;28;20582;-72
2021/11/07 04:46:53;;;;;;;11.50;6.70;;;;;;;;;;5060192;28;20036;-72
2021/11/07 04:49:20;;;;;;;12.55;7.20;;;;;;;;;;5068360;28;20066;-72
2021/11/07 04:51:46;;;;;;;15.43;9.98;;;;;;;;;;5059880;28;20037;-72
2021/11/07 04:54:12;;;;;;;16.80;10.70;;;;;;;;;;5060397;28;20024;-72
2021/11/07 04:56:38;;;;;;;14.00;8.32;;;;;;;;;;5060058;28;20032;-72
2021/11/07 04:59:05;;;;;;;16.38;8.57;;;;;;;;;;5052852;28;20044;-73
2021/11/07 05:01:31;;;;;;;16.35;9.35;;;;;;;;;;5058385;28;20041;-72
2021/11/07 05:03:57;;;;;;;13.75;7.30;;;;;;;;;;5053279;28;20047;-72
2021/11/07 05:06:23;;;;;;;13.85;9.00;;;;;;;;;;5056255;28;20033;-72
2021/11/07 05:08:50;;;;;;;12.65;7.07;;;;;;;;;;5068087;28;20056;-72
2021/11/07 05:11:17;;;;;;;13.00;7.28;;;;;;;;;;5058056;28;20032;-72
2021/11/07 05:13:43;;;;;;;13.27;8.13;;;;;;;;;;5064005;28;20043;-72
2021/11/07 05:16:09;;;;;;;14.40;7.43;;;;;;;;;;5059070;28;20371;-72
2021/11/07 05:18:35;;;;;;;14.60;7.28;;;;;;;;;;5065843;28;20028;-72
2021/11/07 05:21:02;;;;;;;13.43;8.63;;;;;;;;;;5060609;28;20044;-72
2021/11/07 05:23:28;;;;;;;21.13;10.70;;;;;;;;;;5059337;28;20025;-73
2021/11/07 05:25:55;;;;;;;14.95;8.57;;;;;;;;;;5049183;28;20410;-72
2021/11/07 05:28:22;;;;;;;13.18;7.05;;;;;;;;;;5058148;28;20035;-72
2021/11/07 05:30:48;;;;;;;14.13;7.88;;;;;;;;;;5031204;28;20041;-72
2021/11/07 05:33:15;;;;;;;12.13;7.25;;;;;;;;;;5057770;28;20036;-72
2021/11/07 05:35:41;;;;;;;12.27;7.25;;;;;;;;;;5053622;28;20032;-72
2021/11/07 05:38:07;;;;;;;13.38;7.93;;;;;;;;;;5048992;28;20096;-72
2021/11/07 05:40:33;;;;;;;19.75;10.73;;;;;;;;;;5069149;28;20166;-72
2021/11/07 05:42:59;;;;;;;13.93;8.73;;;;;;;;;;5051964;28;20037;-72
2021/11/07 05:45:25;;;;;;;14.55;8.60;;;;;;;;;;5043513;28;20041;-72
2021/11/07 05:47:51;;;;;;;17.35;8.48;;;;;;;;;;5061465;28;20037;-72
2021/11/07 05:50:18;;;;;;;14.77;8.75;;;;;;;;;;5056621;28;20044;-73
2021/11/07 05:52:44;;;;;;;15.93;8.68;;;;;;;;;;5054083;28;20106;-72
2021/11/07 05:55:11;;;;;;;15.32;8.35;;;;;;;;;;5058481;28;20510;-72
2021/11/07 05:57:38;;;;;;;10.80;6.35;;;;;;;;;;5054989;28;20020;-72
2021/11/07 06:00:05;;;;;;;14.75;8.75;;;;;;;;;;5064277;28;20674;-72
2021/11/07 06:02:31;;;;;;;14.35;8.57;;;;;;;;;;5065970;28;20037;-73
2021/11/07 06:04:57;;;;;;;14.70;8.40;;;;;;;;;;5059525;28;20029;-72
2021/11/07 06:07:23;;;;;;;12.40;7.28;;;;;;;;;;5055537;28;20035;-72
2021/11/07 06:09:49;;;;;;;12.40;6.65;;;;;;;;;;5055930;28;20025;-72
2021/11/07 06:12:15;;;;;;;12.23;6.82;;;;;;;;;;5056705;28;20059;-72
2021/11/07 06:14:42;;;;;;;11.43;6.60;;;;;;;;;;5050186;28;20031;-72
2021/11/07 06:17:08;;;;;;;14.02;7.80;;;;;;;;;;5051511;28;20139;-72
2021/11/07 06:19:34;;;;;;;17.33;9.38;;;;;;;;;;5062616;28;20112;-72
2021/11/07 06:22:00;;;;;;;18.80;10.48;;;;;;;;;;5061920;28;20028;-73
2021/11/07 06:24:27;;;;;;;13.35;7.90;;;;;;;;;;5060905;28;20036;-72
2021/11/07 06:26:55;;;;;;;11.20;7.20;;;;;;;;;;5058544;28;20045;-72
2021/11/07 06:29:21;;;;;;;12.65;7.32;;;;;;;;;;5057135;28;20810;-73
2021/11/07 06:31:50;;;;;;;13.38;7.63;;;;;;;;;;5060428;28;20497;-72
2021/11/07 06:34:16;;;;;;;12.60;7.28;;;;;;;;;;5057637;28;20466;-72
2021/11/07 06:36:42;;;;;;;13.45;6.60;;;;;;;;;;5041648;28;20486;-72
2021/11/07 06:39:08;;;;;;;15.23;7.93;;;;;;;;;;5058438;28;20024;-72
2021/11/07 06:41:35;;;;;;;11.10;6.82;;;;;;;;;;5065677;28;20036;-72
2021/11/07 06:44:01;;;;;;;13.43;7.15;;;;;;;;;;5057302;28;20028;-72
2021/11/07 06:46:27;;;;;;;12.93;6.45;;;;;;;;;;5061073;28;20137;-72
2021/11/07 06:48:53;;;;;;;12.48;6.15;;;;;;;;;;5059790;28;21735;-72
2021/11/07 06:51:21;;;;;;;12.15;6.70;;;;;;;;;;5056233;28;20049;-72
2021/11/07 06:53:48;;;;;;;11.90;7.20;;;;;;;;;;5055659;28;20013;-72
2021/11/07 06:56:14;;;;;;;10.93;6.30;;;;;;;;;;5058080;28;20043;-72
2021/11/07 06:58:41;;;;;;;12.50;7.95;;;;;;;;;;5059326;28;20048;-72
2021/11/07 07:01:07;;;;;;;16.73;8.77;;;;;;;;;;5055512;28;20040;-72
2021/11/07 07:03:33;;;;;;;17.80;9.45;;;;;;;;;;5058458;28;20037;-72
2021/11/07 07:06:00;;;;;;;15.18;9.38;;;;;;;;;;5059382;28;20528;-73
2021/11/07 07:08:31;;;;;;;22.33;11.00;;;;;;;;;;5063727;28;20047;-72
2021/11/07 07:11:08;;;;;;;21.13;10.43;;;;;;;;;;5059164;28;20039;-72
2021/11/07 07:13:48;;;;;;;16.33;9.15;;;;;;;;;;5054023;28;20072;-72
2021/11/07 07:29:50;;;;;;;17.73;10.27;;;;;;;;;;5061614;28;20040;-72
2021/11/07 07:34:50;;;;;;;11.95;7.57;;;;;;;;;;5023391;28;20591;-72
2021/11/07 07:37:16;;;;;;;14.80;8.50;;;;;;;;;;5060604;28;20033;-73
2021/11/07 07:39:42;;;;;;;13.35;7.72;;;;;;;;;;5059114;28;20128;-72
2021/11/07 07:42:09;;;;;;;17.65;9.43;;;;;;;;;;5057764;28;20048;-72
2021/11/07 07:44:35;;;;;;;16.42;9.73;;;;;;;;;;5058538;28;20097;-73
2021/11/07 07:47:01;;;;;;;21.27;11.98;;;;;;;;;;5050135;28;20061;-73
2021/11/07 07:49:28;;;;;;;17.75;10.45;;;;;;;;;;5062164;28;20040;-72
2021/11/07 07:51:55;;;;;;;16.83;10.98;;;;;;;;;;5061011;28;20466;-72
2021/11/07 07:54:22;;;;;;;19.83;11.15;;;;;;;;;;5057209;28;20032;-72
2021/11/07 07:56:48;;;;;;;15.57;8.30;;;;;;;;;;5068113;28;20032;-73
2021/11/07 07:59:15;;;;;;;15.80;8.45;;;;;;;;;;5057977;28;20072;-72
2021/11/07 08:01:41;;;;;;;13.40;8.18;;;;;;;;;;5061758;28;20044;-72
2021/11/07 08:04:08;;;;;;;11.75;8.05;;;;;;;;;;5059216;28;20063;-72
2021/11/07 08:06:34;;;;;;;15.23;10.20;;;;;;;;;;5060725;28;20036;-72
2021/11/07 08:09:00;;;;;;;15.30;10.07;;;;;;;;;;5061512;28;20111;-72
2021/11/07 08:11:27;;;;;;;14.35;9.35;;;;;;;;;;5047745;28;20061;-73
2021/11/07 08:13:53;;;;;;;15.35;10.43;;;;;;;;;;5065288;28;20033;-73
2021/11/07 08:16:20;;;;;;;14.05;9.20;;;;;;;;;;5062611;28;20032;-72
2021/11/07 08:18:47;;;;;;;12.73;7.90;;;;;;;;;;5062515;28;20028;-72
2021/11/07 08:21:13;;;;;;;15.75;9.73;;;;;;;;;;5063066;28;20035;-72
2021/11/07 08:23:39;;;;;;;17.90;9.80;;;;;;;;;;5062966;28;20420;-72
2021/11/07 08:26:05;;;;;;;14.50;7.53;;;;;;;;;;5060040;28;20976;-72
2021/11/07 08:28:32;;;;;;;12.70;6.93;;;;;;;;;;5060901;28;20035;-72
2021/11/07 08:31:12;;;;;;;13.70;6.40;;;;;;;;;;5057918;28;20049;-72
2021/11/07 08:33:39;;;;;;;11.15;6.57;;;;;;;;;;5064580;28;20032;-72
2021/11/07 08:36:12;;;;;;;13.60;7.03;;;;;;;;;;5062431;28;20087;-72
2021/11/07 08:38:47;;;;;;;13.43;7.70;;;;;;;;;;5064663;28;20075;-72
2021/11/07 08:41:15;;;;;;;11.00;6.80;;;;;;;;;;5063274;28;20032;-73
2021/11/07 09:08:29;;;;;;;13.73;7.38;;;;;;;;;;5057434;28;20369;-72
2021/11/07 09:10:47;;;;;;;13.13;7.80;;;;;;;;;;5061013;28;20049;-72
2021/11/07 09:13:14;;;;;;;13.82;7.30;;;;;;;;;;5059777;28;20120;-72
2021/11/07 09:15:42;;;;;;;13.48;7.43;;;;;;;;;;5057279;28;20067;-72
2021/11/07 09:18:09;;;;;;;13.73;7.65;;;;;;;;;;5061418;28;20037;-72
2021/11/07 09:20:48;;;;;;;15.48;8.27;;;;;;;;;;5065940;28;20082;-73
2021/11/07 09:23:40;;;;;;;13.77;7.70;;;;;;;;;;5063466;28;20074;-72
2021/11/07 09:26:46;;;;;;;11.48;6.57;;;;;;;;;;5057797;28;20060;-73
2021/11/07 09:28:55;;;;;;;10.35;4.88;;;;;;;;;;5047505;28;20115;-73
2021/11/07 09:36:31;;;;;;;21.58;12.73;;;;;;;;;;5062303;28;20842;-72
2021/11/07 09:44:18;;;;;;;7.78;4.32;;;;;;;;;;5065367;28;20086;-72
2021/11/07 09:46:48;;;;;;;11.48;5.65;;;;;;;;;;5060907;28;20029;-73
2021/11/07 09:49:22;;;;;;;13.95;5.78;;;;;;;;;;5064541;28;20082;-72
2021/11/07 09:51:54;;;;;;;10.15;5.35;;;;;;;;;;5064112;28;20614;-72
2021/11/07 09:54:21;;;;;;;8.57;4.97;;;;;;;;;;5064309;28;20025;-72
2021/11/07 09:56:51;;;;;;;9.57;5.28;;;;;;;;;;5064658;28;20028;-73
2021/11/07 09:59:18;;;;;;;8.88;4.50;;;;;;;;;;5062079;28;20060;-72
2021/11/07 10:01:44;;;;;;;8.73;5.47;;;;;;;;;;5057583;28;20039;-73
2021/11/07 10:04:11;;;;;;;10.48;5.82;;;;;;;;;;5056247;28;20043;-73
2021/11/07 10:06:45;;;;;;;11.63;4.70;;;;;;;;;;5056035;28;20029;-72
2021/11/07 10:09:12;;;;;;;11.00;4.03;;;;;;;;;;5040238;28;20373;-72
2021/11/07 10:11:59;;;;;;;7.78;4.03;;;;;;;;;;5057830;28;20047;-72
2021/11/07 10:14:28;;;;;;;7.25;3.28;;;;;;;;;;5065228;28;20040;-73
2021/11/07 10:16:55;;;;;;;8.48;3.15;;;;;;;;;;5051824;28;20017;-72
2021/11/07 10:19:30;;;;;;;6.93;3.38;;;;;;;;;;5062498;28;20374;-73
2021/11/07 10:21:57;;;;;;;6.80;3.20;;;;;;;;;;5059631;28;20589;-72
2021/11/07 10:24:29;;;;;;;5.90;3.08;;;;;;;;;;5057484;28;20060;-72
2021/11/07 10:27:06;;;;;;;7.22;2.80;;;;;;;;;;5060600;28;20475;-72
2021/11/07 10:29:36;;;;;;;10.13;4.72;;;;;;;;;;5061093;28;20036;-72
2021/11/07 10:32:09;;;;;;;10.57;3.15;;;;;;;;;;5054003;28;20055;-72
2021/11/07 10:45:26;;;;;;;4.63;2.17;;;;;;;;;;5055859;28;20044;-73
2021/11/07 10:53:26;;;;;;;16.08;6.50;;;;;;;;;;5064361;28;20392;-73
2021/11/07 10:55:57;;;;;;;11.63;5.47;;;;;;;;;;5060952;28;20051;-72
2021/11/07 10:58:30;;;;;;;7.50;3.38;;;;;;;;;;5064773;28;20062;-73
2021/11/07 11:00:57;;;;;;;9.68;4.20;;;;;;;;;;5042342;28;20032;-73
2021/11/07 11:03:24;;;;;;;9.70;4.65;;;;;;;;;;5056907;28;20043;-73
2021/11/07 11:05:59;;;;;;;8.60;3.25;;;;;;;;;;5038609;28;20871;-73
2021/11/07 11:08:27;;;;;;;6.38;2.78;;;;;;;;;;5064338;28;20024;-73
2021/11/07 11:11:11;;;;;;;5.15;2.25;;;;;;;;;;5062142;28;20040;-73
2021/11/07 11:13:43;;;;;;;5.72;2.53;;;;;;;;;;5062217;28;20029;-72
2021/11/07 11:32:20;;;;;;;7.32;2.63;;;;;;;;;;5064389;28;20054;-72
2021/11/07 11:34:28;;;;;;;5.20;2.40;;;;;;;;;;5047791;28;20041;-73
2021/11/07 11:39:37;;;;;;;4.88;1.67;;;;;;;;;;5061064;28;20078;-73
2021/11/07 11:42:19;;;;;;;3.30;1.50;;;;;;;;;;5068698;28;20024;-72
2021/11/07 11:44:49;;;;;;;4.55;1.90;;;;;;;;;;5062597;28;20457;-74
2021/11/07 11:47:32;;;;;;;4.25;1.73;;;;;;;;;;5060509;28;20035;-72
2021/11/07 11:52:38;;;;;;;3.33;1.40;;;;;;;;;;5065150;28;20046;-73
2021/11/07 11:55:22;;;;;;;3.17;1.20;;;;;;;;;;5068127;28;20028;-73
2021/11/07 11:58:10;;;;;;;4.18;1.33;;;;;;;;;;5061006;28;20029;-72
2021/11/07 12:06:19;;;;;;;4.78;1.98;;;;;;;;;;5066987;28;20127;-72
2021/11/07 12:08:57;;;;;;;5.00;1.50;;;;;;;;;;5066655;28;20059;-72
2021/11/07 12:11:42;;;;;;;3.95;1.60;;;;;;;;;;5064175;28;20036;-74
2021/11/07 12:16:54;;;;;;;4.25;1.70;;;;;;;;;;5053748;28;20708;-72
2021/11/07 12:19:22;;;;;;;4.03;1.50;;;;;;;;;;5064510;28;20024;-72
2021/11/07 12:21:51;;;;;;;5.50;1.52;;;;;;;;;;5058962;28;20458;-72
2021/11/07 12:24:17;;;;;;;3.42;1.48;;;;;;;;;;5057290;28;20036;-73
2021/11/07 12:26:43;;;;;;;4.15;1.40;;;;;;;;;;5061320;28;20037;-72
2021/11/07 12:29:10;;;;;;;3.25;1.30;;;;;;;;;;5057804;28;20024;-72
2021/11/07 12:31:56;;;;;;;5.75;2.10;;;;;;;;;;5058430;28;20099;-73
2021/11/07 12:34:24;;;;;;;6.35;2.50;;;;;;;;;;5070157;28;20037;-73
2021/11/07 12:42:24;;;;;;;4.60;1.83;;;;;;;;;;5064449;28;20119;-73
2021/11/07 12:44:52;;;;;;;3.90;1.52;;;;;;;;;;5060959;28;20049;-73
2021/11/07 12:47:27;;;;;;;2.90;1.13;;;;;;;;;;5061192;28;20055;-72
2021/11/07 12:49:57;;;;;;;2.67;0.80;;;;;;;;;;5061713;28;20037;-73
2021/11/07 12:52:23;;;;;;;2.38;0.80;;;;;;;;;;5059052;28;20037;-73
2021/11/07 12:54:49;;;;;;;2.25;0.82;;;;;;;;;;5065090;28;20041;-72
2021/11/07 12:57:19;;;;;;;3.45;1.15;;;;;;;;;;5059479;28;20498;-73
2021/11/07 12:59:52;;;;;;;3.15;1.00;;;;;;;;;;5063637;28;20462;-72
2021/11/07 13:02:23;;;;;;;2.53;1.08;;;;;;;;;;5057625;28;20040;-73
2021/11/07 13:04:51;;;;;;;3.92;1.08;;;;;;;;;;5063907;28;20494;-74
2021/11/07 13:08:04;;;;;;;2.47;1.05;;;;;;;;;;5065513;28;20036;-72
2021/11/07 13:31:40;;;;;;;;;;;;;;;;;;5066394;28;20052;-73
2021/11/07 13:34:12;;;;;;;4.35;1.90;;;;;;;;;;5059830;28;19916;-73
2021/11/07 13:36:41;;;;;;;4.13;1.75;;;;;;;;;;5066435;28;20444;-73
2021/11/07 13:39:07;;;;;;;3.92;1.52;;;;;;;;;;5061338;28;20032;-72
2021/11/07 13:41:34;;;;;;;3.42;1.40;;;;;;;;;;5062990;28;20419;-72
2021/11/07 13:44:06;;;;;;;4.40;1.83;;;;;;;;;;5061330;28;20458;-72
2021/11/07 13:46:35;;;;;;;3.22;1.20;;;;;;;;;;5066876;28;20067;-73
2021/11/07 13:49:03;;;;;;;2.80;0.98;;;;;;;;;;5061483;28;20079;-73
2021/11/07 13:51:32;;;;;;;3.33;1.20;;;;;;;;;;5066652;28;20033;-72
2021/11/07 13:54:00;;;;;;;4.38;1.70;;;;;;;;;;5059442;28;20664;-72
2021/11/07 13:56:26;;;;;;;8.25;3.05;;;;;;;;;;5060575;28;20037;-73
2021/11/07 13:58:52;;;;;;;7.40;3.90;;;;;;;;;;5060362;28;20051;-73
2021/11/07 14:01:18;;;;;;;8.57;4.53;;;;;;;;;;5057895;28;20387;-73
2021/11/07 14:03:45;;;;;;;8.45;4.65;;;;;;;;;;5063278;28;20035;-73
2021/11/07 14:06:18;;;;;;;7.35;4.05;;;;;;;;;;5058007;28;20111;-73
2021/11/07 14:08:47;;;;;;;7.00;2.80;;;;;;;;;;5065541;28;20032;-73
2021/11/07 14:11:13;;;;;;;6.45;2.20;;;;;;;;;;5061627;28;20031;-72
2021/11/07 14:13:41;;;;;;;6.72;3.13;;;;;;;;;;5063405;28;20033;-73
2021/11/07 14:16:07;;;;;;;6.25;2.88;;;;;;;;;;5055789;28;20020;-72
2021/11/07 14:18:40;;;;;;;6.85;2.67;;;;;;;;;;5059009;28;20071;-73
2021/11/07 14:21:06;;;;;;;7.25;2.75;;;;;;;;;;5059083;28;20494;-72
2021/11/07 14:26:10;;;;;;;2.38;1.00;;;;;;;;;;5060206;28;20036;-73
2021/11/07 14:28:52;;;;;;;3.70;1.13;;;;;;;;;;5056142;28;20054;-72
2021/11/07 14:31:23;;;;;;;4.75;1.80;;;;;;;;;;5057208;28;20039;-73
2021/11/07 14:34:06;;;;;;;5.65;2.70;;;;;;;;;;5059961;28;20032;-73
2021/11/07 14:36:50;;;;;;;9.32;5.35;;;;;;;;;;5059029;28;20035;-73
2021/11/07 14:44:51;;;;;;;9.88;4.57;;;;;;;;;;5057314;28;20049;-73
2021/11/07 14:47:47;;;;;;;8.30;4.85;;;;;;;;;;5055115;28;20051;-73
2021/11/07 14:53:00;;;;;;;28.90;17.67;;;;;;;;;;5058931;28;20095;-73
2021/11/07 14:55:37;;;;;;;23.38;14.40;;;;;;;;;;5064034;28;20702;-73
2021/11/07 14:58:36;;;;;;;20.55;10.80;;;;;;;;;;5056529;28;20142;-73
2021/11/07 15:01:39;;;;;;;67.80;40.40;;;;;;;;;;5061819;28;20056;-73
2021/11/07 15:09:06;;;;;;;12.38;6.28;;;;;;;;;;5058180;28;20156;-72
2021/11/07 15:14:20;;;;;;;17.58;7.32;;;;;;;;;;5063871;28;20040;-72
2021/11/07 15:17:00;;;;;;;10.60;4.68;;;;;;;;;;5053088;28;20037;-73
2021/11/07 15:19:37;;;;;;;9.23;4.82;;;;;;;;;;5055779;28;20070;-73
2021/11/07 15:22:12;;;;;;;8.18;3.92;;;;;;;;;;5061727;28;20033;-73
2021/11/07 15:24:42;;;;;;;7.38;3.67;;;;;;;;;;5059505;28;20131;-73
2021/11/07 15:27:13;;;;;;;11.15;5.63;;;;;;;;;;5065604;28;20030;-73
2021/11/07 15:29:47;;;;;;;19.42;9.45;;;;;;;;;;5053288;28;20119;-73
2021/11/07 15:32:15;;;;;;;15.80;8.07;;;;;;;;;;5057450;28;20025;-72
2021/11/07 15:34:43;;;;;;;12.73;7.65;;;;;;;;;;5056754;28;20025;-73
2021/11/07 15:37:10;;;;;;;21.20;10.00;;;;;;;;;;5054241;28;20087;-73
2021/11/07 15:39:46;;;;;;;21.75;9.18;;;;;;;;;;5055833;28;20472;-73
2021/11/07 15:42:13;;;;;;;17.25;9.13;;;;;;;;;;5061580;28;20036;-73
2021/11/07 15:44:47;;;;;;;18.48;10.05;;;;;;;;;;5055091;28;20086;-73
2021/11/07 15:47:15;;;;;;;15.45;8.82;;;;;;;;;;5052666;28;20028;-73
2021/11/07 15:49:47;;;;;;;20.85;10.85;;;;;;;;;;5054689;28;20025;-73
2021/11/07 15:54:47;;;;;;;19.02;10.70;;;;;;;;;;5059781;28;20048;-73
2021/11/07 16:08:04;;;;;;;27.27;12.73;;;;;;;;;;5062297;28;20047;-73
2021/11/07 16:10:45;;;;;;;14.60;7.50;;;;;;;;;;5060361;28;20565;-71
2021/11/07 16:13:30;;;;;;;13.90;7.55;;;;;;;;;;5063820;28;20028;-74
2021/11/07 16:18:50;;;;;;;97.05;54.53;;;;;;;;;;5039422;28;20025;-74
2021/11/07 16:21:19;;;;;;;36.63;19.67;;;;;;;;;;5054555;28;20450;-73
2021/11/07 16:23:46;;;;;;;32.78;18.95;;;;;;;;;;5065584;28;20029;-73
2021/11/07 16:26:14;;;;;;;25.58;14.80;;;;;;;;;;5065122;28;20042;-73
2021/11/07 16:28:41;;;;;;;24.90;14.57;;;;;;;;;;5064302;28;20029;-73
2021/11/07 16:31:11;;;;;;;25.45;14.27;;;;;;;;;;5061659;28;20028;-73
2021/11/07 16:33:42;;;;;;;24.50;13.65;;;;;;;;;;5059825;28;20474;-74
2021/11/07 16:41:05;;;;;;;32.65;17.98;;;;;;;;;;5061901;28;20159;-73
2021/11/07 16:43:31;;;;;;;34.08;19.60;;;;;;;;;;5064301;28;20115;-74
2021/11/07 16:46:02;;;;;;;24.13;13.80;;;;;;;;;;5060265;28;20979;-73
2021/11/07 16:48:28;;;;;;;19.88;11.05;;;;;;;;;;5062761;28;20087;-73
2021/11/07 16:51:01;;;;;;;16.83;10.10;;;;;;;;;;5043698;28;20025;-73
2021/11/07 16:53:31;;;;;;;26.13;16.50;;;;;;;;;;5071674;28;20110;-73
2021/11/07 16:56:04;;;;;;;23.60;13.95;;;;;;;;;;5069765;28;20024;-73
2021/11/07 16:58:44;;;;;;;38.30;23.52;;;;;;;;;;5064032;28;20049;-73
2021/11/07 17:01:13;;;;;;;43.83;26.52;;;;;;;;;;5063239;28;20043;-73
2021/11/07 17:03:40;;;;;;;39.47;23.88;;;;;;;;;;5061729;28;20062;-74
2021/11/07 17:08:44;;;;;;;30.77;20.25;;;;;;;;;;5061453;28;20079;-73
2021/11/07 17:11:11;;;;;;;28.65;19.35;;;;;;;;;;5052464;28;20072;-72
2021/11/07 17:13:38;;;;;;;29.70;19.17;;;;;;;;;;5064818;28;20019;-73
2021/11/07 17:16:21;;;;;;;26.00;17.13;;;;;;;;;;5060834;28;20605;-73
2021/11/07 17:18:48;;;;;;;20.60;13.38;;;;;;;;;;5062275;28;20024;-73
2021/11/07 17:24:24;;;;;;;21.30;13.73;;;;;;;;;;5059937;28;20037;-73
2021/11/07 17:26:43;;;;;;;24.08;13.57;;;;;;;;;;5062003;28;20119;-73
2021/11/07 17:29:12;;;;;;;24.83;14.93;;;;;;;;;;5064045;28;20059;-73
2021/11/07 17:31:43;;;;;;;21.38;13.35;;;;;;;;;;5064933;28;20067;-73
2021/11/07 17:36:49;;;;;;;19.40;11.88;;;;;;;;;;5062728;28;20032;-73
2021/11/07 17:39:56;;;;;;;16.58;9.63;;;;;;;;;;5060072;28;20024;-73
2021/11/07 17:48:54;;;;;;;25.08;14.07;;;;;;;;;;5064208;28;20077;-74
2021/11/07 17:56:13;;;;;;;12.73;7.30;;;;;;;;;;5066043;28;20075;-73
2021/11/07 17:58:39;;;;;;;12.30;8.60;;;;;;;;;;5059611;28;20083;-73
2021/11/07 18:01:05;;;;;;;11.45;6.90;;;;;;;;;;5057238;28;20056;-73
2021/11/07 18:03:31;;;;;;;13.15;9.00;;;;;;;;;;5062096;28;20806;-73
2021/11/07 18:05:57;;;;;;;14.65;9.15;;;;;;;;;;5063617;28;20024;-74
2021/11/07 18:08:29;;;;;;;11.80;6.88;;;;;;;;;;5062091;28;20040;-73
2021/11/07 18:10:55;;;;;;;14.88;7.75;;;;;;;;;;5060408;28;20028;-73
2021/11/07 18:13:28;;;;;;;13.90;8.20;;;;;;;;;;5059889;28;20618;-73
2021/11/07 18:15:54;;;;;;;14.02;9.77;;;;;;;;;;5065652;28;20481;-73
2021/11/07 18:18:20;;;;;;;13.63;8.55;;;;;;;;;;5062820;28;20753;-73
2021/11/07 18:20:46;;;;;;;16.33;9.90;;;;;;;;;;5060827;28;20101;-73
2021/11/07 18:23:14;;;;;;;22.15;10.88;;;;;;;;;;5058422;28;20044;-73